Meteo Giornale » Osservazioni meteo Stati Uniti (USA) » New Orleans
ore: 23:53 - Osservazioni Meteo New Orleans
Lat. 29° 59' N Lon. 90° 15' W Alt. 1 metri s.l.m.
28 °C
Molto Nuvoloso
Temp. 24 Ore
25 °C
32 °C
Est/Sud-Est
13 Km/h
Dew point 25 °C
Umidità 83 %
Visibilità 10 Km
Il sole sorge alle ore 06:38
Il sole tramonta alle ore 19:23
| Data e Ora | Cielo e Fenomeni | T °C | DP °C | Um. % | Pres. hPa | Vis. km | Vento km/h | |
|---|---|---|---|---|---|---|---|---|
| Ieri h: 23:53 | Molto Nuvoloso | 28 | 25 | 83 | 1016 | 10 | E/SE 13 | |
| Ieri h: 22:53 | Molto Nuvoloso | 28 | 24 | 78 | 1016 | 10 | E 14.8 | |
| Ieri h: 21:53 | Molto Nuvoloso | 28 | 24 | 78 | 1015 | 10 | E/SE 18.5 | |
| Ieri h: 20:53 | Molto Nuvoloso | 29 | 24 | 74 | 1015 | 10 | E 18.5 | |
| Ieri h: 19:53 | Molto Nuvoloso | 29 | 23 | 70 | 1015 | 10 | E 18.5 | |
| Ieri h: 18:53 | Molto Nuvoloso | 30 | 23 | 66 | 1015 | 10 | E 16.7 | |
| Ieri h: 17:53 | Nuvoloso | 30 | 23 | 66 | 1015 | 10 | E 24 | |
| Ieri h: 16:53 | Nuvoloso | 31 | 23 | 62 | 1015 | 10 | E 22.2 | |
| Ieri h: 15:53 | Nuvoloso | 32 | 24 | 62 | 1015 | 10 | E 25.9 | |
| Ieri h: 14:53 | Nuvoloso | 32 | 23 | 59 | 1016 | 10 | E 25.9 | |
| Ieri h: 13:53 | Pioggia | 28 | 25 | 83 | 1016 | 13 | S/SE 22.2 | |
| Ieri h: 12:53 | Nuvoloso | 32 | 24 | 62 | 1017 | 10 | E 31.5 | |
| Ieri h: 11:53 | Nuvoloso | 31 | 24 | 66 | 1017 | 10 | E 20.3 | |
| Ieri h: 11:17 | Molto Nuvoloso | 28 | 24 | 78 | 1017 | 10 | NE 20.3 | |
| Ieri h: 10:53 | Temporale | 28 | 25 | 83 | 1017 | 10 | E/NE 14.8 | |
| Ieri h: 10:34 | Temporale | 27 | 24 | 83 | 1017 | 10 | NE 13 | |
| Ieri h: 10:21 | Pioggia Foschia | 26 | 24 | 88 | 1017 | 10 | E/NE 11.1 | |
| Ieri h: 10:16 | Pioggia Foschia | 25 | 24 | 94 | 1017 | 10 | NE 9.3 | |
| Ieri h: 10:10 | Temporale Foschia | 25 | 23 | 88 | 1017 | 6 | E/NE 13 | |
| Ieri h: 10:06 | Temporale Foschia | 25 | 23 | 88 | 1017 | 3 | E/SE 13 | |
| Ieri h: 10:00 | Temporale | 27 | 24 | 83 | 1017 | 2 | E/SE 48.1 | |
| Ieri h: 09:57 | Temporale | 29 | 24 | 74 | 1018 | 5 | E/SE 38.8 | |
| Ieri h: 09:53 | Molto Nuvoloso | 29 | 24 | 74 | 1017 | 10 | E 22.2 | |
| Ieri h: 08:53 | Molto Nuvoloso | 29 | 26 | 83 | 1016 | 10 | E 16.7 | |
| Ieri h: 07:53 | Molto Nuvoloso | 26 | 24 | 88 | 1016 | 10 | N 0 | |
| Ieri h: 06:53 | Molto Nuvoloso | 26 | 23 | 83 | 1015 | 10 | N 0 | |
| Ieri h: 05:53 | Molto Nuvoloso | 28 | 24 | 78 | 1015 | 10 | E/NE 9.3 | |
| Ieri h: 04:53 | Nuvoloso | 28 | 24 | 78 | 1015 | 10 | NE 7.4 | |
| Ieri h: 03:53 | Poco Nuvoloso | 28 | 24 | 78 | 1014 | 10 | N 5.5 | |
| Ieri h: 02:53 | Poco Nuvoloso | 27 | 24 | 83 | 1015 | 10 | E 7.4 | |
| Ieri h: 01:53 | Sereno | 28 | 24 | 78 | 1015 | 10 | E 14.8 | |
| Ieri h: 00:53 | Poco Nuvoloso | 28 | 24 | 78 | 1015 | 10 | E 11.1 | |



